»·PEaware :: N12SA KBFL-KMRY

N12SA :: KBFL-KMRY

FLIGHT INFORMATION

Flight Status: Arrived
Operator: Privately registered:
United States
More flights under this callsign
Pilot: Anonymous 21174 (21174)
Aircraft: CESSNA 172 SKYHAWK
(C172)
More flights by this aircraft type
Origin: KBFL Meadows
United States
Destination: KMRY Monterey Peninsula
United States
More flights between these airports :: More routes between these airports
Route: +DCT EHF V248 AVE DCT WIGGL DCT
File this flight plan on PilotEdge
Remarks:
Altitude:
(Current/Filed)
8,000ft
Speed:
(Current/Filed)
110kts
Departed: 15-Aug-20 05:28 PM
Arrived: 15-Aug-20 06:53 PM
Distance/Time
Traveled:
152nm/1:25
Distance/Time
To Go:
Arrived

Flight Plot

Page will automatically refresh every two minutes.

Flight plan parsing failed; only flown route is shown


Map Options




Map Legend


Flown Route
Filed Route
Departure Airport
Arrival Airport
Navaid (VOR, NDB)
Fix

Horizontal Profiles

Position Reports

Time Latitude Longitude Heading Altitude Ground
Speed
15-Aug-20 17:16 35.435703 -119.052044 180 504ft 0kts
15-Aug-20 17:17 35.435703 -119.052044 180 504ft 0kts
15-Aug-20 17:18 35.435703 -119.052044 180 504ft 0kts
15-Aug-20 17:19 35.435703 -119.052044 180 504ft 0kts
15-Aug-20 17:20 35.435703 -119.052044 180 504ft 0kts
15-Aug-20 17:21 35.435703 -119.052044 180 504ft 0kts
15-Aug-20 17:22 35.435376 -119.053529 231 500ft 6kts
15-Aug-20 17:23 35.433094 -119.053099 136 493ft 12kts
15-Aug-20 17:24 35.430455 -119.049873 134 491ft 15kts
15-Aug-20 17:25 35.426869 -119.045566 135 483ft 20kts
15-Aug-20 17:26 35.425680 -119.044739 229 479ft 0kts
15-Aug-20 17:27 35.427532 -119.048583 312 481ft 67kts
15-Aug-20 17:28 35.442594 -119.066422 314 1275ft 85kts
15-Aug-20 17:29 35.460932 -119.088075 313 2092ft 95kts
15-Aug-20 17:30 35.479972 -119.109572 314 3011ft 86kts
15-Aug-20 17:31 35.488701 -119.130748 285 3963ft 66kts
15-Aug-20 17:32 35.494243 -119.156287 285 4589ft 87kts
15-Aug-20 17:33 35.500574 -119.187253 283 5247ft 94kts
15-Aug-20 17:34 35.506321 -119.217286 283 5984ft 89kts
15-Aug-20 17:35 35.512059 -119.247459 283 6611ft 92kts
15-Aug-20 17:36 35.517979 -119.278662 283 7182ft 96kts
15-Aug-20 17:37 35.524239 -119.311613 282 7687ft 101kts
15-Aug-20 17:38 35.530856 -119.346560 282 8005ft 110kts
15-Aug-20 17:39 35.537829 -119.383458 282 8002ft 109kts
15-Aug-20 17:40 35.542433 -119.407753 282 8005ft 106kts
15-Aug-20 17:41 35.549204 -119.443830 282 8004ft 110kts
15-Aug-20 17:42 35.556125 -119.480732 282 8003ft 111kts
15-Aug-20 17:43 35.563115 -119.518045 282 8003ft 112kts
15-Aug-20 17:44 35.570089 -119.555300 282 8003ft 112kts
15-Aug-20 17:45 35.577059 -119.592684 282 8003ft 112kts
15-Aug-20 17:46 35.584287 -119.630201 283 8003ft 112kts
15-Aug-20 17:47 35.591897 -119.667623 282 8003ft 112kts
15-Aug-20 17:48 35.599122 -119.705234 282 8003ft 113kts
15-Aug-20 17:49 35.606214 -119.743085 282 8003ft 113kts
15-Aug-20 17:50 35.613274 -119.781029 282 8003ft 113kts
15-Aug-20 17:51 35.620277 -119.818786 282 8003ft 113kts
15-Aug-20 17:52 35.627290 -119.856700 282 8003ft 113kts
15-Aug-20 17:53 35.634280 -119.894607 282 8003ft 113kts
15-Aug-20 17:54 35.641264 -119.932526 282 8003ft 113kts
15-Aug-20 17:55 35.648271 -119.970655 284 8003ft 113kts
15-Aug-20 17:56 35.664970 -120.003620 304 8003ft 114kts
15-Aug-20 17:57 35.683122 -120.035765 304 8003ft 114kts
15-Aug-20 17:58 35.701412 -120.067867 304 8003ft 114kts
15-Aug-20 17:59 35.719688 -120.099904 304 8003ft 114kts
15-Aug-20 18:00 35.737999 -120.131970 305 8003ft 114kts
15-Aug-20 18:01 35.756328 -120.164058 305 8003ft 114kts
15-Aug-20 18:02 35.774583 -120.196131 304 8003ft 114kts
15-Aug-20 18:03 35.792857 -120.228290 304 8003ft 114kts
15-Aug-20 18:04 35.811203 -120.260508 304 8003ft 114kts
15-Aug-20 18:05 35.829502 -120.292714 304 8003ft 115kts
15-Aug-20 18:06 35.847937 -120.325184 304 8003ft 115kts
15-Aug-20 18:07 35.866341 -120.357648 304 8001ft 115kts
15-Aug-20 18:08 35.884781 -120.390190 304 8001ft 115kts
15-Aug-20 18:09 35.903169 -120.422669 304 8001ft 115kts
15-Aug-20 18:10 35.921490 -120.455076 304 8003ft 115kts
15-Aug-20 18:11 35.939890 -120.487655 304 8003ft 115kts
15-Aug-20 18:12 35.958301 -120.520265 304 8003ft 115kts
15-Aug-20 18:13 35.976704 -120.552894 304 8003ft 115kts
15-Aug-20 18:14 35.995105 -120.585544 304 8004ft 116kts
15-Aug-20 18:15 36.014395 -120.619915 307 8017ft 132kts
15-Aug-20 18:16 36.034727 -120.658271 298 7930ft 132kts
15-Aug-20 18:17 36.055225 -120.696620 302 7026ft 128kts
15-Aug-20 18:18 36.076033 -120.732828 303 6165ft 131kts
15-Aug-20 18:19 36.095445 -120.767494 299 5977ft 115kts
15-Aug-20 18:20 36.112903 -120.798956 305 6086ft 106kts
15-Aug-20 18:21 36.130577 -120.831630 305 6041ft 112kts
15-Aug-20 18:22 36.149030 -120.864046 302 6025ft 120kts
15-Aug-20 18:23 36.167123 -120.896228 305 6034ft 106kts
15-Aug-20 18:24 36.184822 -120.927515 302 6047ft 111kts
15-Aug-20 18:26 36.202114 -120.958691 304 6053ft 107kts
15-Aug-20 18:27 36.219877 -120.990947 302 6038ft 112kts
15-Aug-20 18:28 36.236937 -121.021713 302 6017ft 98kts
15-Aug-20 18:29 36.254448 -121.053262 303 6020ft 115kts
15-Aug-20 18:30 36.272312 -121.085368 302 6022ft 111kts
15-Aug-20 18:31 36.289906 -121.117048 302 6023ft 111kts
15-Aug-20 18:32 36.307456 -121.148708 302 6025ft 111kts
15-Aug-20 18:33 36.325001 -121.180441 302 6026ft 111kts
15-Aug-20 18:34 36.342555 -121.212182 302 6027ft 111kts
15-Aug-20 18:35 36.360160 -121.244055 302 6028ft 112kts
15-Aug-20 18:36 36.378046 -121.276409 302 5999ft 112kts
15-Aug-20 18:37 36.395132 -121.309177 300 5999ft 113kts
15-Aug-20 18:38 36.413500 -121.343733 302 5423ft 119kts
15-Aug-20 18:39 36.428882 -121.378628 292 4990ft 112kts
15-Aug-20 18:40 36.440901 -121.413058 292 4991ft 106kts
15-Aug-20 18:41 36.452537 -121.446610 292 4992ft 105kts
15-Aug-20 18:42 36.464027 -121.479835 291 4996ft 104kts
15-Aug-20 18:43 36.475554 -121.513142 291 5001ft 104kts
15-Aug-20 18:44 36.487152 -121.546647 290 5002ft 106kts
15-Aug-20 18:44 36.496816 -121.574554 291 5006ft 107kts
15-Aug-20 18:46 36.509491 -121.611463 291 5007ft 108kts
15-Aug-20 18:47 36.521379 -121.646057 291 5009ft 109kts
15-Aug-20 18:47 36.531440 -121.675202 291 4768ft 110kts
15-Aug-20 18:48 36.540635 -121.711357 288 4167ft 108kts
15-Aug-20 18:49 36.552659 -121.745217 296 3570ft 106kts
15-Aug-20 18:50 36.565710 -121.778758 292 2728ft 109kts
15-Aug-20 18:51 36.577730 -121.816305 292 758ft 128kts
15-Aug-20 18:52 36.585684 -121.840707 266 231ft 20kts
15-Aug-20 18:53 36.585157 -121.841806 284 228ft 12kts
15-Aug-20 18:54 36.587423 -121.848126 293 185ft 17kts
15-Aug-20 18:55 36.588678 -121.853386 256 169ft 7kts
15-Aug-20 18:56 36.588760 -121.853803 287 168ft 0kts
15-Aug-20 18:57 36.588760 -121.853803 287 168ft 0kts
15-Aug-20 18:58 36.588760 -121.853803 287 168ft 0kts
15-Aug-20 18:59 36.588760 -121.853803 287 168ft 0kts
15-Aug-20 19:00 36.588760 -121.853803 287 168ft 0kts
15-Aug-20 19:01 36.588760 -121.853803 287 168ft 0kts
15-Aug-20 19:02 36.588760 -121.853803 287 168ft 0kts
15-Aug-20 19:03 36.588760 -121.853803 287 168ft 0kts
15-Aug-20 19:04 36.588760 -121.853803 287 168ft 0kts
15-Aug-20 19:05 36.588760 -121.853803 287 168ft 0kts
15-Aug-20 19:06 36.588760 -121.853803 287 168ft 0kts
15-Aug-20 19:07 36.588760 -121.853803 287 168ft 0kts

Navigation Log

Ident Type
Flight plan parsing failed, navigation log unavailable